createdAt,value
2023-01-05T00:00:31.303Z,10.11
2023-01-05T00:04:47.460Z,10.16
2023-01-05T00:09:04.448Z,10.07
2023-01-05T00:13:38.983Z,9.98
2023-01-05T00:18:13.876Z,10.05
2023-01-05T00:22:33.661Z,9.50
2023-01-05T00:26:49.831Z,9.30
2023-01-05T00:31:06.114Z,9.50
2023-01-05T00:35:23.872Z,9.54
2023-01-05T00:39:40.086Z,9.42
2023-01-05T00:43:56.256Z,9.05
2023-01-05T00:48:12.416Z,9.20
2023-01-05T00:52:28.662Z,9.17
2023-01-05T00:56:46.678Z,9.31
2023-01-05T01:01:09.041Z,9.52
2023-01-05T01:05:25.266Z,9.26
2023-01-05T01:09:41.624Z,9.37
2023-01-05T01:13:57.896Z,9.37
2023-01-05T01:18:14.014Z,9.51
2023-01-05T01:22:30.199Z,9.48
2023-01-05T01:26:46.464Z,9.71
2023-01-05T01:31:03.093Z,9.72
2023-01-05T01:35:19.301Z,9.62
2023-01-05T01:39:35.562Z,9.03
2023-01-05T01:43:54.170Z,8.80
2023-01-05T01:48:14.675Z,8.91
2023-01-05T01:52:31.856Z,9.07
2023-01-05T01:56:54.199Z,8.97
2023-01-05T02:01:11.237Z,8.95
2023-01-05T02:05:30.846Z,8.97
2023-01-05T02:09:47.144Z,9.22
2023-01-05T02:14:09.467Z,9.11
2023-01-05T02:18:44.273Z,9.21
2023-01-05T02:23:24.473Z,9.07
2023-01-05T02:27:59.322Z,9.11
2023-01-05T02:32:23.344Z,9.33
2023-01-05T02:36:48.028Z,8.94
2023-01-05T02:41:13.455Z,9.35
2023-01-05T02:45:30.291Z,9.27
2023-01-05T02:49:46.483Z,9.38
2023-01-05T02:54:07.171Z,9.16
2023-01-05T02:58:47.332Z,9.40
2023-01-05T03:03:28.854Z,9.31
2023-01-05T03:07:46.530Z,9.16
2023-01-05T03:12:33.775Z,9.39
2023-01-05T03:16:51.312Z,9.34
2023-01-05T03:21:07.600Z,9.66
2023-01-05T03:25:43.542Z,9.36
2023-01-05T03:30:18.746Z,9.60
2023-01-05T03:35:36.350Z,9.86
2023-01-05T03:39:52.523Z,9.63
2023-01-05T03:44:08.968Z,9.58
2023-01-05T03:48:27.361Z,9.55
2023-01-05T03:52:43.572Z,9.53
2023-01-05T03:56:59.790Z,9.57
2023-01-05T04:01:16.114Z,9.69
2023-01-05T04:05:32.442Z,9.63
2023-01-05T04:09:48.583Z,9.53
2023-01-05T04:14:04.788Z,8.78
2023-01-05T04:18:20.942Z,9.71
2023-01-05T04:22:37.075Z,9.31
2023-01-05T04:26:53.225Z,9.03
2023-01-05T04:31:09.377Z,9.16
2023-01-05T04:35:25.647Z,8.88
2023-01-05T04:39:41.817Z,9.47
2023-01-05T04:43:58.497Z,9.59
2023-01-05T04:48:14.892Z,9.71
2023-01-05T04:52:31.145Z,9.64
2023-01-05T04:56:47.347Z,9.64
2023-01-05T05:01:03.751Z,9.13
2023-01-05T05:05:19.948Z,8.90
2023-01-05T05:09:36.160Z,8.83
2023-01-05T05:13:52.328Z,8.54
2023-01-05T05:18:09.580Z,8.28
2023-01-05T05:22:26.600Z,8.25
2023-01-05T05:26:42.838Z,8.58
2023-01-05T05:30:59.117Z,8.69
2023-01-05T05:35:15.494Z,8.62
2023-01-05T05:39:31.659Z,8.77
2023-01-05T05:43:47.819Z,8.69
2023-01-05T05:48:04.023Z,8.79
2023-01-05T05:52:20.410Z,8.79
2023-01-05T05:56:36.609Z,8.50
2023-01-05T06:00:57.144Z,8.38
2023-01-05T06:05:13.308Z,8.54
2023-01-05T06:09:29.517Z,8.60
2023-01-05T06:13:46.363Z,8.83
2023-01-05T06:18:02.501Z,8.41
2023-01-05T06:22:18.658Z,8.88
2023-01-05T06:26:34.807Z,8.88
2023-01-05T06:30:50.915Z,9.14
2023-01-05T06:35:07.434Z,9.66
2023-01-05T06:39:23.723Z,10.04
2023-01-05T06:43:40.085Z,10.03
2023-01-05T06:47:57.761Z,10.19
2023-01-05T06:52:16.489Z,10.22
2023-01-05T06:56:33.171Z,10.35
2023-01-05T07:00:49.383Z,10.44
2023-01-05T07:05:05.917Z,10.36
2023-01-05T07:09:22.101Z,10.51
2023-01-05T07:13:38.248Z,10.20
2023-01-05T07:17:54.414Z,10.69
2023-01-05T07:22:10.752Z,10.60
2023-01-05T07:26:27.057Z,10.61
2023-01-05T07:30:43.352Z,10.39
2023-01-05T07:34:59.562Z,10.82
2023-01-05T07:39:16.113Z,10.98
2023-01-05T07:43:32.320Z,11.22
2023-01-05T07:47:48.571Z,11.24
2023-01-05T07:52:05.057Z,11.62
2023-01-05T07:56:21.336Z,10.84
2023-01-05T08:00:37.547Z,11.17
2023-01-05T08:04:54.226Z,11.29
2023-01-05T08:09:29.164Z,11.48
2023-01-05T08:14:01.162Z,11.07
2023-01-05T08:18:17.357Z,11.35
2023-01-05T08:22:33.573Z,11.81
2023-01-05T08:26:51.627Z,12.26
2023-01-05T08:31:13.802Z,11.86
2023-01-05T08:35:29.981Z,11.71
2023-01-05T08:39:46.163Z,12.17
2023-01-05T08:44:05.623Z,12.53
2023-01-05T08:48:22.148Z,11.61
2023-01-05T08:52:41.026Z,11.67
2023-01-05T08:56:57.227Z,11.76
2023-01-05T09:01:18.190Z,11.76
2023-01-05T09:05:34.466Z,11.97
2023-01-05T09:09:50.646Z,12.03
2023-01-05T09:14:06.895Z,11.80
2023-01-05T09:18:23.180Z,12.14
2023-01-05T09:22:39.583Z,11.83
2023-01-05T09:26:56.483Z,11.58
2023-01-05T09:31:15.242Z,12.04
2023-01-05T09:35:31.495Z,11.84
2023-01-05T09:39:48.102Z,11.70
2023-01-05T09:44:12.420Z,11.93
2023-01-05T09:48:31.125Z,12.69
2023-01-05T09:52:48.171Z,12.46
2023-01-05T09:57:09.639Z,12.11
2023-01-05T10:01:26.705Z,11.78
2023-01-05T10:05:46.433Z,11.13
2023-01-05T10:10:09.027Z,11.26
2023-01-05T10:14:28.927Z,11.25
2023-01-05T10:18:45.946Z,11.57
2023-01-05T10:23:21.929Z,11.20
2023-01-05T10:27:39.675Z,11.12
2023-01-05T10:32:12.148Z,11.44
2023-01-05T10:37:11.333Z,10.86
2023-01-05T10:41:33.653Z,11.00
2023-01-05T10:46:19.643Z,10.47
2023-01-05T10:50:29.248Z,10.44
2023-01-05T10:54:49.604Z,10.27
2023-01-05T10:59:11.666Z,10.68
2023-01-05T11:04:24.009Z,10.03
2023-01-05T11:08:20.415Z,10.46
2023-01-05T11:12:39.769Z,9.95
2023-01-05T11:17:02.011Z,9.34
2023-01-05T11:21:31.644Z,9.76
2023-01-05T11:25:47.857Z,10.22
2023-01-05T11:30:33.698Z,9.94
2023-01-05T11:34:52.015Z,10.40
2023-01-05T11:39:17.600Z,10.51
2023-01-05T11:43:34.192Z,10.96
2023-01-05T11:47:51.453Z,10.52
2023-01-05T11:52:28.574Z,10.96
2023-01-05T11:56:44.835Z,9.91
2023-01-05T12:01:07.501Z,10.53
2023-01-05T12:05:51.853Z,10.00
2023-01-05T12:10:36.931Z,10.12
2023-01-05T12:14:59.097Z,10.29
2023-01-05T12:19:38.241Z,9.74
2023-01-05T12:23:57.217Z,9.54
2023-01-05T12:28:39.517Z,9.56
2023-01-05T12:38:06.710Z,9.47
2023-01-05T12:42:49.352Z,9.48
2023-01-05T12:47:37.069Z,9.53
2023-01-05T12:52:19.093Z,9.72
2023-01-05T12:56:38.607Z,9.13
2023-01-05T13:00:57.817Z,9.72
2023-01-05T13:05:32.671Z,9.85
2023-01-05T13:10:03.371Z,10.14
2023-01-05T13:14:35.126Z,9.59
2023-01-05T13:19:23.240Z,10.04
2023-01-05T13:23:52.029Z,10.21
2023-01-05T13:28:17.685Z,10.58
2023-01-05T13:32:40.011Z,10.22
2023-01-05T13:37:06.182Z,9.80
2023-01-05T13:41:43.549Z,9.91
2023-01-05T13:46:05.555Z,10.27
2023-01-05T13:50:42.869Z,10.59
2023-01-05T13:55:02.466Z,10.62
2023-01-05T13:59:34.511Z,10.56
2023-01-05T14:03:57.448Z,10.34
2023-01-05T14:08:38.506Z,10.12
2023-01-05T14:12:54.960Z,9.87
2023-01-05T14:17:11.530Z,10.18
2023-01-05T14:21:49.409Z,9.92
2023-01-05T14:26:07.013Z,9.71
2023-01-05T14:30:24.420Z,10.24
2023-01-05T14:35:09.780Z,10.37
2023-01-05T14:39:34.397Z,10.70
2023-01-05T14:44:06.077Z,10.33
2023-01-05T14:48:43.188Z,10.31
2023-01-05T14:53:34.621Z,10.31
2023-01-05T14:57:56.568Z,9.92
2023-01-05T15:02:22.616Z,9.43
2023-01-05T15:07:06.914Z,10.13
2023-01-05T15:11:35.243Z,9.63
2023-01-05T15:16:03.469Z,10.03
2023-01-05T15:20:26.300Z,9.89
2023-01-05T15:24:57.996Z,9.45
2023-01-05T15:29:50.905Z,9.50
2023-01-05T15:34:28.598Z,9.18
2023-01-05T15:38:46.720Z,9.29
2023-01-05T15:43:04.354Z,9.44
2023-01-05T15:47:22.266Z,9.71
2023-01-05T15:51:38.533Z,9.37
2023-01-05T15:55:55.041Z,8.83
2023-01-05T16:00:26.211Z,9.11
2023-01-05T16:04:42.337Z,8.95
2023-01-05T16:09:07.675Z,9.51
2023-01-05T16:13:29.615Z,9.02
2023-01-05T16:17:47.906Z,9.44
2023-01-05T16:22:04.058Z,9.30
2023-01-05T16:26:20.570Z,9.13
2023-01-05T16:30:39.256Z,8.90
2023-01-05T16:35:26.746Z,8.76
2023-01-05T16:39:44.535Z,8.67
2023-01-05T16:44:03.825Z,8.84
2023-01-05T16:48:40.821Z,9.05
2023-01-05T16:53:04.703Z,8.92
2023-01-05T16:57:33.533Z,8.88
2023-01-05T17:01:49.880Z,8.70
2023-01-05T17:06:06.885Z,8.80
2023-01-05T17:10:27.584Z,8.61
2023-01-05T17:14:45.826Z,9.06
2023-01-05T17:19:02.449Z,9.35
2023-01-05T17:23:29.273Z,9.56
2023-01-05T17:27:46.543Z,9.26
2023-01-05T17:32:03.144Z,9.45
2023-01-05T17:36:21.582Z,9.30
2023-01-05T17:40:38.245Z,9.19
2023-01-05T17:44:54.545Z,9.49
2023-01-05T17:49:16.112Z,8.71
2023-01-05T17:53:32.509Z,8.95
2023-01-05T17:57:48.769Z,9.08
2023-01-05T18:02:05.082Z,8.79
2023-01-05T18:06:21.361Z,8.74
2023-01-05T18:10:38.504Z,8.37
2023-01-05T18:14:54.778Z,8.30
2023-01-05T18:19:11.044Z,8.23
2023-01-05T18:23:27.385Z,8.32
2023-01-05T18:27:43.671Z,8.19
2023-01-05T18:32:00.131Z,8.61
2023-01-05T18:36:16.437Z,8.57
2023-01-05T18:40:32.651Z,8.63
2023-01-05T18:44:48.942Z,8.63
2023-01-05T18:49:06.192Z,8.30
2023-01-05T18:53:23.168Z,9.12
2023-01-05T18:57:39.345Z,9.00
2023-01-05T19:01:55.862Z,8.97
2023-01-05T19:06:16.483Z,8.56
2023-01-05T19:10:32.915Z,9.08
2023-01-05T19:14:49.061Z,9.13
2023-01-05T19:19:10.891Z,9.26
2023-01-05T19:23:27.350Z,9.20
2023-01-05T19:27:47.534Z,8.85
2023-01-05T19:32:05.308Z,8.88
2023-01-05T19:36:23.845Z,9.27
2023-01-05T19:40:40.153Z,9.39
2023-01-05T19:44:56.503Z,9.68
2023-01-05T19:49:21.188Z,9.30
2023-01-05T19:53:38.597Z,9.16
2023-01-05T19:57:54.849Z,9.30
2023-01-05T20:02:11.476Z,8.98
2023-01-05T20:06:37.144Z,9.40
2023-01-05T20:10:53.301Z,9.22
2023-01-05T20:15:12.850Z,9.19
2023-01-05T20:19:32.120Z,9.21
2023-01-05T20:23:48.613Z,8.91
2023-01-05T20:28:04.910Z,9.25
2023-01-05T20:32:23.887Z,9.10
2023-01-05T20:36:40.639Z,9.30
2023-01-05T20:40:57.261Z,9.69
2023-01-05T20:45:15.345Z,9.54
2023-01-05T20:49:33.239Z,9.24
2023-01-05T20:53:50.241Z,9.53
2023-01-05T20:58:06.679Z,9.67
2023-01-05T21:02:24.646Z,9.56
2023-01-05T21:06:43.596Z,9.34
2023-01-05T21:11:01.059Z,9.26
2023-01-05T21:15:20.784Z,9.09
2023-01-05T21:19:39.062Z,9.50
2023-01-05T21:23:55.896Z,9.54
2023-01-05T21:28:12.548Z,9.58
2023-01-05T21:32:28.779Z,9.53
2023-01-05T21:36:46.044Z,9.63
2023-01-05T21:41:09.518Z,9.34
2023-01-05T21:45:25.771Z,9.72
2023-01-05T21:49:41.893Z,9.37
2023-01-05T21:54:19.136Z,9.05
2023-01-05T21:58:37.967Z,8.95
2023-01-05T22:02:54.310Z,8.83
2023-01-05T22:07:11.094Z,9.07
2023-01-05T22:11:27.343Z,9.04
2023-01-05T22:15:44.615Z,8.52
2023-01-05T22:20:01.036Z,8.94
2023-01-05T22:24:17.335Z,9.10
2023-01-05T22:28:35.613Z,8.94
2023-01-05T22:32:51.896Z,9.13
2023-01-05T22:37:08.099Z,8.96
2023-01-05T22:41:27.259Z,9.23
2023-01-05T22:45:43.416Z,8.92
2023-01-05T22:49:59.597Z,8.70
2023-01-05T22:54:15.837Z,8.60
2023-01-05T22:58:32.078Z,8.78
2023-01-05T23:02:48.240Z,8.52
2023-01-05T23:07:04.776Z,8.87
2023-01-05T23:11:26.549Z,9.07
2023-01-05T23:15:52.751Z,8.87
2023-01-05T23:20:12.687Z,9.14
2023-01-05T23:24:28.928Z,8.82
2023-01-05T23:28:45.879Z,9.30
2023-01-05T23:33:02.105Z,9.16
2023-01-05T23:37:18.335Z,9.18
2023-01-05T23:41:36.833Z,8.98
2023-01-05T23:46:02.293Z,9.24
2023-01-05T23:50:18.536Z,9.23
2023-01-05T23:54:34.744Z,8.84
2023-01-05T23:58:56.828Z,8.24
